Ault, Kentucky
Current Conditions -  °F | °C
As of 6:30 AM on Friday 31 Oct 2014 (Local Time) from KSYM Reporting Station
Overcast Overcast  
Wind Chill: 41°   Ceiling: 5000
Heat Index: 41°   Visibility: 10mi
Dew Point: 37°   Wind: 0mph
Humidity: 87%   Direction: NA
Pressure: 30.01"   Gusts: NA
Location:  38.3543°N, 83.1837°W
Report Text: KSYM 311030Z AUTO 00000KT 10SM BKN050 OVC060 05/03 A3001 RMK AO2
Loading
Personal Weather Stations






























Interactive Weather Map
Tropical Storm Tracking
New forecast layout! Learn more

10-Day Weather Forecast

Advertisements
Track Severe Weather on mobile